createdAt,value
2018-11-06T00:02:17.244Z,42.30
2018-11-06T00:04:50.800Z,42.00
2018-11-06T00:07:18.824Z,45.30
2018-11-06T00:09:46.796Z,43.23
2018-11-06T00:12:14.794Z,44.40
2018-11-06T00:14:42.775Z,42.70
2018-11-06T00:17:10.743Z,42.53
2018-11-06T00:19:38.728Z,43.00
2018-11-06T00:22:07.798Z,41.73
2018-11-06T00:24:35.811Z,43.17
2018-11-06T00:27:03.868Z,44.30
2018-11-06T00:29:31.870Z,43.10
2018-11-06T00:32:00.728Z,41.53
2018-11-06T00:34:28.729Z,42.83
2018-11-06T00:36:56.714Z,41.43
2018-11-06T00:39:24.694Z,40.70
2018-11-06T00:41:52.700Z,41.77
2018-11-06T00:44:20.684Z,37.83
2018-11-06T00:46:48.684Z,38.93
2018-11-06T00:49:16.718Z,40.60
2018-11-06T00:51:44.724Z,38.40
2018-11-06T00:54:12.697Z,39.10
2018-11-06T00:56:40.679Z,39.40
2018-11-06T00:59:09.708Z,40.50
2018-11-06T01:01:37.716Z,38.60
2018-11-06T01:04:08.600Z,39.90
2018-11-06T01:06:36.636Z,38.70
2018-11-06T01:09:06.042Z,38.53
2018-11-06T01:11:34.015Z,40.13
2018-11-06T01:14:01.997Z,38.33
2018-11-06T01:16:30.006Z,37.90
2018-11-06T01:18:58.021Z,36.87
2018-11-06T01:21:26.024Z,38.30
2018-11-06T01:23:54.045Z,37.30
2018-11-06T01:26:22.014Z,37.30
2018-11-06T01:28:49.999Z,39.70
2018-11-06T01:31:17.968Z,38.87
2018-11-06T01:33:45.942Z,37.70
2018-11-06T01:36:13.912Z,38.80
2018-11-06T01:38:41.864Z,39.00
2018-11-06T01:41:09.848Z,38.73
2018-11-06T01:43:37.828Z,37.00
2018-11-06T01:46:05.996Z,37.93
2018-11-06T01:48:33.991Z,38.77
2018-11-06T01:51:01.998Z,36.40
2018-11-06T01:53:29.980Z,37.70
2018-11-06T01:55:57.967Z,38.90
2018-11-06T01:58:25.943Z,37.37
2018-11-06T02:00:53.949Z,37.83
2018-11-06T02:03:21.932Z,37.27
2018-11-06T02:05:49.952Z,37.60
2018-11-06T02:08:17.944Z,37.07
2018-11-06T02:10:45.912Z,36.20
2018-11-06T02:13:13.885Z,36.80
2018-11-06T02:15:41.906Z,37.23
2018-11-06T02:18:09.905Z,36.87
2018-11-06T02:20:37.888Z,36.33
2018-11-06T02:23:05.892Z,38.07
2018-11-06T02:25:33.950Z,36.27
2018-11-06T02:28:01.998Z,39.27
2018-11-06T02:30:29.971Z,38.27
2018-11-06T02:32:57.956Z,37.10
2018-11-06T02:35:25.975Z,36.90
2018-11-06T02:37:53.952Z,40.27
2018-11-06T02:40:21.930Z,38.63
2018-11-06T02:42:49.908Z,38.70
2018-11-06T02:45:17.884Z,37.23
2018-11-06T02:47:45.894Z,38.57
2018-11-06T02:50:14.546Z,39.30
2018-11-06T02:52:43.005Z,37.90
2018-11-06T02:55:11.338Z,37.73
2018-11-06T02:57:39.613Z,36.10
2018-11-06T03:00:09.603Z,35.03
2018-11-06T03:02:37.579Z,35.37
2018-11-06T03:05:06.193Z,34.87
2018-11-06T03:07:34.140Z,36.37
2018-11-06T03:10:02.128Z,35.57
2018-11-06T03:12:30.081Z,36.67
2018-11-06T03:14:58.031Z,35.00
2018-11-06T03:17:26.017Z,36.17
2018-11-06T03:19:53.985Z,35.73
2018-11-06T03:22:22.065Z,35.47
2018-11-06T03:24:50.039Z,36.57
2018-11-06T03:27:18.089Z,35.67
2018-11-06T03:29:46.063Z,35.90
2018-11-06T03:32:14.137Z,36.50
2018-11-06T03:34:42.191Z,35.50
2018-11-06T03:37:10.177Z,37.50
2018-11-06T03:39:38.162Z,38.03
2018-11-06T03:42:06.239Z,36.87
2018-11-06T03:44:34.309Z,37.93
2018-11-06T03:47:02.355Z,36.80
2018-11-06T03:49:30.447Z,36.93
2018-11-06T03:51:58.489Z,35.73
2018-11-06T03:54:26.444Z,34.20
2018-11-06T03:56:54.445Z,36.17
2018-11-06T03:59:22.412Z,34.53
2018-11-06T04:01:51.195Z,36.83
2018-11-06T04:04:19.165Z,35.87
2018-11-06T04:06:47.116Z,35.13
2018-11-06T04:09:15.989Z,35.90
2018-11-06T04:11:44.016Z,36.10
2018-11-06T04:14:12.224Z,36.20
2018-11-06T04:16:40.152Z,34.97
2018-11-06T04:19:08.520Z,34.17
2018-11-06T04:21:37.496Z,35.13
2018-11-06T04:24:07.205Z,34.70
2018-11-06T04:26:36.010Z,32.20
2018-11-06T04:29:04.676Z,33.30
2018-11-06T04:31:32.670Z,33.50
2018-11-06T04:34:00.718Z,33.03
2018-11-06T04:36:29.088Z,32.03
2018-11-06T04:38:57.273Z,32.77
2018-11-06T04:41:25.676Z,32.40
2018-11-06T04:43:53.668Z,33.83
2018-11-06T04:46:21.929Z,34.40
2018-11-06T04:48:50.378Z,34.93
2018-11-06T04:51:18.568Z,33.27
2018-11-06T04:53:46.616Z,33.30
2018-11-06T04:56:14.556Z,33.97
2018-11-06T04:58:42.597Z,33.40
2018-11-06T05:01:10.564Z,33.43
2018-11-06T05:03:44.028Z,33.60
2018-11-06T05:06:12.133Z,34.00
2018-11-06T05:08:40.153Z,34.63
2018-11-06T05:11:08.169Z,34.40
2018-11-06T05:13:36.173Z,34.93
2018-11-06T05:16:04.480Z,34.20
2018-11-06T05:18:32.455Z,35.73
2018-11-06T05:21:00.524Z,34.23
2018-11-06T05:23:28.505Z,34.50
2018-11-06T05:25:56.497Z,34.60
2018-11-06T05:28:24.520Z,33.57
2018-11-06T05:30:52.610Z,32.23
2018-11-06T05:33:20.665Z,33.70
2018-11-06T05:35:48.653Z,34.30
2018-11-06T05:38:16.710Z,32.57
2018-11-06T05:40:54.793Z,32.90
2018-11-06T05:43:22.757Z,32.03
2018-11-06T05:45:51.387Z,32.20
2018-11-06T05:48:19.431Z,33.47
2018-11-06T05:50:47.713Z,32.87
2018-11-06T05:53:16.150Z,33.90
2018-11-06T05:55:44.158Z,34.97
2018-11-06T05:58:12.124Z,32.83
2018-11-06T06:00:40.580Z,33.30
2018-11-06T06:03:08.489Z,33.43
2018-11-06T06:05:36.484Z,34.67
2018-11-06T06:08:05.232Z,32.50
2018-11-06T06:10:33.298Z,35.23
2018-11-06T06:13:01.398Z,34.17
2018-11-06T06:15:29.358Z,35.23
2018-11-06T06:17:57.604Z,33.47
2018-11-06T06:20:25.564Z,33.63
2018-11-06T06:22:53.533Z,32.20
2018-11-06T06:25:21.591Z,33.80
2018-11-06T06:27:49.574Z,32.83
2018-11-06T06:30:18.012Z,33.67
2018-11-06T06:32:46.005Z,32.30
2018-11-06T06:35:14.050Z,33.33
2018-11-06T06:37:42.397Z,33.27
2018-11-06T06:40:12.459Z,31.53
2018-11-06T06:42:40.796Z,32.27
2018-11-06T06:45:11.425Z,32.97
2018-11-06T06:50:25.176Z,32.13
2018-11-06T06:52:53.344Z,32.23
2018-11-06T06:55:21.316Z,33.83
2018-11-06T06:57:49.417Z,31.87
2018-11-06T07:00:18.698Z,31.40
2018-11-06T07:02:46.776Z,31.97
2018-11-06T07:05:16.262Z,33.00
2018-11-06T07:07:44.580Z,32.30
2018-11-06T07:10:14.559Z,30.57
2018-11-06T07:12:43.612Z,31.33
2018-11-06T07:15:12.764Z,32.63
2018-11-06T07:17:41.112Z,32.10
2018-11-06T07:20:11.293Z,31.87
2018-11-06T07:22:39.423Z,31.23
2018-11-06T07:25:08.711Z,32.30
2018-11-06T07:27:36.812Z,31.43
2018-11-06T07:30:07.131Z,31.87
2018-11-06T07:32:35.096Z,29.60
2018-11-06T07:35:03.262Z,30.70
2018-11-06T07:37:31.039Z,29.93
2018-11-06T07:39:59.027Z,30.43
2018-11-06T07:42:27.053Z,30.40
2018-11-06T07:44:55.056Z,28.67
2018-11-06T07:47:23.020Z,30.27
2018-11-06T07:49:51.122Z,29.93
2018-11-06T07:52:19.055Z,30.30
2018-11-06T07:54:47.114Z,30.90
2018-11-06T07:57:15.065Z,31.47
2018-11-06T07:59:43.088Z,29.57
2018-11-06T08:02:11.070Z,27.67
2018-11-06T08:04:39.069Z,29.20
2018-11-06T08:07:07.033Z,28.87
2018-11-06T08:09:35.066Z,30.03
2018-11-06T08:12:03.017Z,28.27
2018-11-06T08:14:31.020Z,28.40
2018-11-06T08:16:58.962Z,29.30
2018-11-06T08:19:26.986Z,28.10
2018-11-06T08:21:55.020Z,29.60
2018-11-06T08:24:22.982Z,29.60
2018-11-06T08:26:50.964Z,28.30
2018-11-06T08:29:18.932Z,27.17
2018-11-06T08:31:47.152Z,29.30
2018-11-06T08:34:14.894Z,26.97
2018-11-06T08:36:42.980Z,29.53
2018-11-06T08:39:11.762Z,27.83
2018-11-06T08:41:40.102Z,28.43
2018-11-06T08:44:08.313Z,26.63
2018-11-06T08:46:36.324Z,28.20
2018-11-06T08:49:04.544Z,26.50
2018-11-06T08:51:32.548Z,27.87
2018-11-06T08:54:00.537Z,27.47
2018-11-06T08:56:28.560Z,28.03
2018-11-06T08:58:56.520Z,29.73
2018-11-06T09:01:24.509Z,28.80
2018-11-06T09:03:52.569Z,30.50
2018-11-06T09:06:20.535Z,28.63
2018-11-06T09:08:48.638Z,27.73
2018-11-06T09:11:16.676Z,28.70
2018-11-06T09:13:44.749Z,26.27
2018-11-06T09:16:12.736Z,27.10
2018-11-06T09:18:40.741Z,27.83
2018-11-06T09:21:08.735Z,26.20
2018-11-06T09:23:36.705Z,25.40
2018-11-06T09:26:04.904Z,26.20
2018-11-06T09:28:32.878Z,27.13
2018-11-06T09:31:01.003Z,25.30
2018-11-06T09:33:28.925Z,25.67
2018-11-06T09:35:56.980Z,25.40
2018-11-06T09:38:25.050Z,25.60
2018-11-06T09:40:53.012Z,26.37
2018-11-06T09:43:20.970Z,24.43
2018-11-06T09:45:48.989Z,25.27
2018-11-06T09:48:16.940Z,25.87
2018-11-06T09:50:44.993Z,25.27
2018-11-06T09:53:12.980Z,26.50
2018-11-06T09:55:41.029Z,24.53
2018-11-06T09:58:09.515Z,26.10
2018-11-06T10:00:37.485Z,26.37
2018-11-06T10:03:05.693Z,25.83
2018-11-06T10:05:33.701Z,24.97
2018-11-06T10:08:01.725Z,28.47
2018-11-06T10:10:29.768Z,25.00
2018-11-06T10:12:57.775Z,25.80
2018-11-06T10:15:25.813Z,26.43
2018-11-06T10:17:53.786Z,24.70
2018-11-06T10:20:21.805Z,29.13
2018-11-06T10:22:49.924Z,24.03
2018-11-06T10:25:17.904Z,24.13
2018-11-06T10:27:45.908Z,23.60
2018-11-06T10:30:16.689Z,24.13
2018-11-06T10:32:44.704Z,24.23
2018-11-06T10:35:12.829Z,22.53
2018-11-06T10:37:40.902Z,23.70
2018-11-06T10:40:13.567Z,24.13
2018-11-06T10:42:41.770Z,22.80
2018-11-06T10:45:09.873Z,23.90
2018-11-06T10:47:38.169Z,24.50
2018-11-06T10:50:07.002Z,22.57
2018-11-06T10:52:35.061Z,22.67
2018-11-06T10:55:03.032Z,24.50
2018-11-06T10:57:31.004Z,23.00
2018-11-06T10:59:59.037Z,22.97
2018-11-06T11:02:32.576Z,22.33
2018-11-06T11:05:00.632Z,22.30
2018-11-06T11:07:28.629Z,21.70
2018-11-06T11:09:56.805Z,20.30
2018-11-06T11:12:25.013Z,20.77
2018-11-06T11:14:53.036Z,22.20
2018-11-06T11:17:21.005Z,20.10
2018-11-06T11:19:49.068Z,21.13
2018-11-06T11:22:17.229Z,20.60
2018-11-06T11:24:45.277Z,21.10
2018-11-06T11:27:13.302Z,21.70
2018-11-06T11:29:41.280Z,20.80
2018-11-06T11:32:09.320Z,20.87
2018-11-06T11:34:37.308Z,21.50
2018-11-06T11:37:05.313Z,20.90
2018-11-06T11:39:33.308Z,18.90
2018-11-06T11:42:01.316Z,20.30
2018-11-06T11:44:29.339Z,21.20
2018-11-06T11:46:57.334Z,20.13
2018-11-06T11:49:25.466Z,19.87
2018-11-06T11:51:53.497Z,20.07
2018-11-06T11:54:21.444Z,18.60
2018-11-06T11:56:49.509Z,20.33
2018-11-06T11:59:17.484Z,19.93
2018-11-06T12:01:45.465Z,20.40
2018-11-06T12:04:13.460Z,19.20
2018-11-06T12:06:41.436Z,19.70
2018-11-06T12:09:10.205Z,19.07
2018-11-06T12:11:38.296Z,18.60
2018-11-06T12:14:06.277Z,18.97
2018-11-06T12:16:34.568Z,18.93
2018-11-06T12:19:02.667Z,18.33
2018-11-06T12:21:30.761Z,19.33
2018-11-06T12:23:58.772Z,20.77
2018-11-06T12:26:26.816Z,18.60
2018-11-06T12:28:54.844Z,18.87
2018-11-06T12:31:22.852Z,19.53
2018-11-06T12:33:50.816Z,18.50
2018-11-06T12:36:18.825Z,19.70
2018-11-06T12:38:46.828Z,20.10
2018-11-06T12:41:14.805Z,21.20
2018-11-06T12:43:42.941Z,21.50
2018-11-06T12:46:10.756Z,20.93
2018-11-06T12:48:38.732Z,21.07
2018-11-06T12:51:06.887Z,20.60
2018-11-06T12:53:34.946Z,19.53
2018-11-06T12:56:02.991Z,22.33
2018-11-06T12:58:30.985Z,21.00
2018-11-06T13:00:58.959Z,22.83
2018-11-06T13:03:33.531Z,22.17
2018-11-06T13:06:01.646Z,21.13
2018-11-06T13:08:29.618Z,20.43
2018-11-06T13:10:57.633Z,21.23
2018-11-06T13:13:25.584Z,21.30
2018-11-06T13:15:53.736Z,22.07
2018-11-06T13:18:21.572Z,23.17
2018-11-06T13:20:49.614Z,23.17
2018-11-06T13:23:17.612Z,23.40
2018-11-06T13:25:45.678Z,23.97
2018-11-06T13:28:13.576Z,24.73
2018-11-06T13:30:41.578Z,24.00
2018-11-06T13:33:09.516Z,24.50
2018-11-06T13:35:37.523Z,25.00
2018-11-06T13:38:05.640Z,26.37
2018-11-06T13:40:33.596Z,25.23
2018-11-06T13:43:01.629Z,25.30
2018-11-06T13:45:29.785Z,25.97
2018-11-06T13:47:57.658Z,26.77
2018-11-06T13:50:25.688Z,27.40
2018-11-06T13:52:53.725Z,27.47
2018-11-06T13:55:21.685Z,28.90
2018-11-06T13:57:49.640Z,29.30
2018-11-06T14:00:18.825Z,29.30
2018-11-06T14:02:46.808Z,28.57
2018-11-06T14:05:15.153Z,29.33
2018-11-06T14:07:43.127Z,30.00
2018-11-06T14:10:11.150Z,27.87
2018-11-06T14:12:39.432Z,28.47
2018-11-06T14:15:07.444Z,29.93
2018-11-06T14:17:35.600Z,28.30
2018-11-06T14:20:03.871Z,29.53
2018-11-06T14:22:32.221Z,30.17
2018-11-06T14:25:00.177Z,29.60
2018-11-06T14:27:28.212Z,30.23
2018-11-06T14:29:56.117Z,30.57
2018-11-06T14:32:24.079Z,33.40
2018-11-06T14:34:52.039Z,30.13
2018-11-06T14:37:20.059Z,29.37
2018-11-06T14:39:48.021Z,29.00
2018-11-06T14:42:16.012Z,29.50
2018-11-06T14:44:44.064Z,29.70
2018-11-06T14:47:12.148Z,30.93
2018-11-06T14:49:40.125Z,28.23
2018-11-06T14:52:08.323Z,29.37
2018-11-06T14:54:37.084Z,29.10
2018-11-06T14:57:05.296Z,29.40
2018-11-06T14:59:33.266Z,28.77
2018-11-06T15:02:01.316Z,30.13
2018-11-06T15:04:29.354Z,29.30
2018-11-06T15:06:57.425Z,30.20
2018-11-06T15:09:25.379Z,28.07
2018-11-06T15:11:53.348Z,28.47
2018-11-06T15:14:21.336Z,27.20
2018-11-06T15:16:49.331Z,27.60
2018-11-06T15:19:17.465Z,28.67
2018-11-06T15:21:45.432Z,27.97
2018-11-06T15:24:13.401Z,27.70
2018-11-06T15:26:41.382Z,28.07
2018-11-06T15:29:09.389Z,29.10
2018-11-06T15:31:37.396Z,28.07
2018-11-06T15:34:05.593Z,29.00
2018-11-06T15:36:33.560Z,29.17
2018-11-06T15:39:01.565Z,29.13
2018-11-06T15:41:30.453Z,28.70
2018-11-06T15:43:58.389Z,28.70
2018-11-06T15:46:26.384Z,29.17
2018-11-06T15:48:54.388Z,30.60
2018-11-06T15:51:22.396Z,29.27
2018-11-06T15:53:50.385Z,28.53
2018-11-06T15:56:18.357Z,29.30
2018-11-06T15:58:46.341Z,28.80
2018-11-06T16:01:14.373Z,28.77
2018-11-06T16:03:42.537Z,28.77
2018-11-06T16:06:10.525Z,29.10
2018-11-06T16:08:38.575Z,29.47
2018-11-06T16:11:06.569Z,29.63
2018-11-06T16:13:34.544Z,29.93
2018-11-06T16:16:02.496Z,30.00
2018-11-06T16:18:30.498Z,30.73
2018-11-06T16:20:58.527Z,32.33
2018-11-06T16:23:26.488Z,28.63
2018-11-06T16:25:54.477Z,29.80
2018-11-06T16:28:22.443Z,31.30
2018-11-06T16:30:50.409Z,29.60
2018-11-06T16:33:18.381Z,31.10
2018-11-06T16:35:46.379Z,31.33
2018-11-06T16:38:14.393Z,30.67
2018-11-06T16:40:42.416Z,32.00
2018-11-06T16:43:10.398Z,31.73
2018-11-06T16:45:38.514Z,30.50
2018-11-06T16:48:06.473Z,31.10
2018-11-06T16:50:34.577Z,30.67
2018-11-06T16:53:02.553Z,32.57
2018-11-06T16:55:30.521Z,32.80
2018-11-06T16:57:58.505Z,33.20
2018-11-06T17:00:27.427Z,33.57
2018-11-06T17:02:55.227Z,32.87
2018-11-06T17:05:23.326Z,34.17
2018-11-06T17:07:51.675Z,33.10
2018-11-06T17:10:20.060Z,33.13
2018-11-06T17:12:48.222Z,35.53
2018-11-06T17:15:17.529Z,34.27
2018-11-06T17:17:46.332Z,33.63
2018-11-06T17:20:14.808Z,34.20
2018-11-06T17:22:42.835Z,33.70
2018-11-06T17:25:12.294Z,33.17
2018-11-06T17:27:40.428Z,34.07
2018-11-06T17:30:10.183Z,35.63
2018-11-06T17:32:38.881Z,35.63
2018-11-06T17:35:08.321Z,33.83
2018-11-06T17:37:37.020Z,35.70
2018-11-06T17:40:06.544Z,34.53
2018-11-06T17:42:34.585Z,35.93
2018-11-06T17:45:02.591Z,36.20
2018-11-06T17:47:30.582Z,35.40
2018-11-06T17:49:58.600Z,37.60
2018-11-06T17:52:26.584Z,36.00
2018-11-06T17:54:54.699Z,36.40
2018-11-06T17:57:22.630Z,35.90
2018-11-06T17:59:50.776Z,36.60
2018-11-06T18:02:18.753Z,38.07
2018-11-06T18:04:46.818Z,38.47
2018-11-06T18:07:14.881Z,36.27
2018-11-06T18:09:42.904Z,36.30
2018-11-06T18:12:10.953Z,37.20
2018-11-06T18:14:39.002Z,36.60
2018-11-06T18:17:07.009Z,39.40
2018-11-06T18:19:35.003Z,37.40
2018-11-06T18:22:03.030Z,39.70
2018-11-06T18:24:31.084Z,40.07
2018-11-06T18:26:59.046Z,39.37
2018-11-06T18:29:27.108Z,42.50
2018-11-06T18:31:55.141Z,40.03
2018-11-06T18:34:23.104Z,37.53
2018-11-06T18:36:51.230Z,37.90
2018-11-06T18:39:19.241Z,37.00
2018-11-06T18:41:47.261Z,38.47
2018-11-06T18:44:15.388Z,36.87
2018-11-06T18:46:43.268Z,38.87
2018-11-06T18:49:11.250Z,39.50
2018-11-06T18:51:39.260Z,38.73
2018-11-06T18:54:07.257Z,38.93
2018-11-06T18:56:35.261Z,38.83
2018-11-06T18:59:03.304Z,41.67
2018-11-06T19:01:37.768Z,41.20
2018-11-06T19:04:06.125Z,41.67
2018-11-06T19:06:34.256Z,40.10
2018-11-06T19:09:02.295Z,41.43
2018-11-06T19:11:30.481Z,41.73
2018-11-06T19:13:58.420Z,41.83
2018-11-06T19:16:26.448Z,42.13
2018-11-06T19:18:54.388Z,42.30
2018-11-06T19:21:22.382Z,43.40
2018-11-06T19:23:50.413Z,40.73
2018-11-06T19:26:18.509Z,39.23
2018-11-06T19:28:46.493Z,40.67
2018-11-06T19:31:14.766Z,40.27
2018-11-06T19:33:42.764Z,40.07
2018-11-06T19:36:10.782Z,41.10
2018-11-06T19:38:38.784Z,40.20
2018-11-06T19:41:07.040Z,40.33
2018-11-06T19:43:35.037Z,39.20
2018-11-06T19:46:03.306Z,39.83
2018-11-06T19:48:31.648Z,41.30
2018-11-06T19:50:59.699Z,41.83
2018-11-06T19:53:27.719Z,40.70
2018-11-06T19:55:55.839Z,41.30
2018-11-06T19:58:23.829Z,41.90
2018-11-06T20:00:52.061Z,42.37
2018-11-06T20:03:20.060Z,40.43
2018-11-06T20:05:48.428Z,40.20
2018-11-06T20:08:16.369Z,41.20
2018-11-06T20:10:44.677Z,41.43
2018-11-06T20:13:12.698Z,41.83
2018-11-06T20:15:40.868Z,40.50
2018-11-06T20:18:09.038Z,40.50
2018-11-06T20:20:37.220Z,38.70
2018-11-06T20:23:05.553Z,40.50
2018-11-06T20:25:33.613Z,39.83
2018-11-06T20:28:01.846Z,40.70
2018-11-06T20:30:29.840Z,40.40
2018-11-06T20:32:57.867Z,40.33
2018-11-06T20:35:25.811Z,40.93
2018-11-06T20:37:53.771Z,40.80
2018-11-06T20:40:23.195Z,41.60
2018-11-06T20:42:51.288Z,39.57
2018-11-06T20:45:20.093Z,39.43
2018-11-06T20:47:48.092Z,39.00
2018-11-06T20:50:17.326Z,40.70
2018-11-06T20:52:45.504Z,41.50
2018-11-06T20:55:14.473Z,42.07
2018-11-06T20:57:42.517Z,40.93
2018-11-06T21:00:17.588Z,49.00
2018-11-06T21:02:45.831Z,41.73
2018-11-06T21:05:14.480Z,41.87
2018-11-06T21:07:42.576Z,40.70
2018-11-06T21:10:10.720Z,42.40
2018-11-06T21:12:38.828Z,50.87
2018-11-06T21:15:07.802Z,48.03
2018-11-06T21:17:35.930Z,46.13
2018-11-06T21:20:04.998Z,47.40
2018-11-06T21:22:33.061Z,46.17
2018-11-06T21:25:01.149Z,46.77
2018-11-06T21:27:29.210Z,45.80
2018-11-06T21:29:57.232Z,44.17
2018-11-06T21:32:25.517Z,46.57
2018-11-06T21:34:53.557Z,43.50
2018-11-06T21:37:21.676Z,40.93
2018-11-06T21:39:49.742Z,40.57
2018-11-06T21:42:17.824Z,39.10
2018-11-06T21:44:45.969Z,41.60
2018-11-06T21:47:14.735Z,41.13
2018-11-06T21:49:42.932Z,42.37
2018-11-06T21:52:11.031Z,42.87
2018-11-06T21:54:39.744Z,42.87
2018-11-06T21:57:07.780Z,42.87
2018-11-06T21:59:35.930Z,42.93
2018-11-06T22:02:04.020Z,41.80
2018-11-06T22:04:32.069Z,44.77
2018-11-06T22:07:00.079Z,43.97
2018-11-06T22:09:28.160Z,47.30
2018-11-06T22:11:56.235Z,43.57
2018-11-06T22:14:24.446Z,42.00
2018-11-06T22:16:52.617Z,42.43
2018-11-06T22:19:20.638Z,44.17
2018-11-06T22:21:48.822Z,43.00
2018-11-06T22:24:16.900Z,43.20
2018-11-06T22:26:44.968Z,42.50
2018-11-06T22:29:13.028Z,43.97
2018-11-06T22:31:41.209Z,41.00
2018-11-06T22:34:09.237Z,42.93
2018-11-06T22:36:37.306Z,43.67
2018-11-06T22:39:07.520Z,44.30
2018-11-06T22:41:35.646Z,43.17
2018-11-06T22:44:03.702Z,42.90
2018-11-06T22:46:31.790Z,41.80
2018-11-06T22:48:59.908Z,42.13
2018-11-06T22:51:28.005Z,41.30
2018-11-06T22:53:56.146Z,41.40
2018-11-06T22:56:24.168Z,41.30
2018-11-06T22:58:52.220Z,41.60
2018-11-06T23:01:24.171Z,42.20
2018-11-06T23:03:52.965Z,41.83
2018-11-06T23:06:21.541Z,39.53
2018-11-06T23:08:49.461Z,41.10
2018-11-06T23:11:17.460Z,40.70
2018-11-06T23:13:45.536Z,41.33
2018-11-06T23:16:13.629Z,42.57
2018-11-06T23:18:41.775Z,41.20
2018-11-06T23:21:09.871Z,40.90
2018-11-06T23:23:37.918Z,39.73
2018-11-06T23:26:05.950Z,40.63
2018-11-06T23:28:34.000Z,40.60
2018-11-06T23:31:02.043Z,38.90
2018-11-06T23:33:30.158Z,40.73
2018-11-06T23:35:58.212Z,41.50
2018-11-06T23:38:26.320Z,40.20
2018-11-06T23:40:54.364Z,38.93
2018-11-06T23:43:22.401Z,39.50
2018-11-06T23:45:50.396Z,39.40
2018-11-06T23:48:18.442Z,38.97
2018-11-06T23:50:46.507Z,41.20
2018-11-06T23:53:14.564Z,40.70
2018-11-06T23:55:43.484Z,39.87
2018-11-06T23:58:11.501Z,39.50
